Time;durP1;ratioP1;P1;durP2;ratioP2;P2;SDS_P1;SDS_P2;PMS_P1;PMS_P2;Temp;Humidity;BMP_temperature;BMP_pressure;BME280_temperature;BME280_humidity;BME280_pressure;Samples;Min_cycle;Max_cycle;Signal;HPM_P1;HPM_P2
2024/04/05 00:01:16;;;;;;;30.45;5.82;;;16.30;90.50;;;;;;5042231;28;20033;-58
2024/04/05 00:03:42;;;;;;;33.53;6.70;;;16.30;90.50;;;;;;5042073;28;20033;-58
2024/04/05 00:06:07;;;;;;;26.23;5.90;;;16.30;90.60;;;;;;5043660;28;20323;-58
2024/04/05 00:08:33;;;;;;;24.48;5.82;;;16.30;90.60;;;;;;5059017;28;20340;-58
2024/04/05 00:10:59;;;;;;;31.02;5.53;;;16.30;90.60;;;;;;5062029;28;20036;-58
2024/04/05 00:13:25;;;;;;;29.00;6.03;;;16.30;90.70;;;;;;5061335;28;20029;-58
2024/04/05 00:15:52;;;;;;;25.17;5.35;;;16.20;90.70;;;;;;5062603;28;20033;-58
2024/04/05 00:18:21;;;;;;;24.38;5.40;;;16.20;90.70;;;;;;5025950;28;20061;-58
2024/04/05 00:20:48;;;;;;;29.70;5.80;;;16.20;90.70;;;;;;5043564;28;20036;-58
2024/04/05 00:23:14;;;;;;;22.70;5.35;;;16.20;90.70;;;;;;5063590;28;20025;-58
2024/04/05 00:25:40;;;;;;;26.48;5.45;;;16.20;90.70;;;;;;5054636;28;20448;-58
2024/04/05 00:28:06;;;;;;;25.92;6.07;;;16.20;90.80;;;;;;5042052;28;20029;-58
2024/04/05 00:30:32;;;;;;;22.30;5.55;;;16.20;90.80;;;;;;5032970;28;20036;-58
2024/04/05 00:32:57;;;;;;;22.55;4.60;;;16.10;90.80;;;;;;5063928;28;20037;-58
2024/04/05 00:35:23;;;;;;;27.30;5.22;;;16.10;90.80;;;;;;5053919;28;20499;-58
2024/04/05 00:37:49;;;;;;;27.73;5.28;;;16.10;90.80;;;;;;5045700;28;20056;-58
2024/04/05 00:40:15;;;;;;;24.10;5.13;;;16.10;90.80;;;;;;5046692;28;20033;-58
2024/04/05 00:42:40;;;;;;;21.30;4.05;;;16.10;90.90;;;;;;5047126;28;20045;-58
2024/04/05 00:45:06;;;;;;;19.08;4.53;;;16.10;90.90;;;;;;5028945;28;20493;-58
2024/04/05 00:47:35;;;;;;;19.58;3.92;;;16.10;90.90;;;;;;5029017;28;20034;-58
2024/04/05 00:50:04;;;;;;;24.33;5.18;;;16.10;90.90;;;;;;5064955;28;20135;-59
2024/04/05 00:52:31;;;;;;;24.88;6.03;;;16.00;90.90;;;;;;5060411;28;20049;-58
2024/04/05 00:54:57;;;;;;;18.35;4.78;;;16.00;90.90;;;;;;5045359;28;20025;-58
2024/04/05 00:57:23;;;;;;;17.95;4.43;;;16.00;91.00;;;;;;5045101;28;20068;-58
2024/04/05 00:59:48;;;;;;;19.08;4.40;;;16.00;91.00;;;;;;5045347;28;20093;-58
2024/04/05 01:02:14;;;;;;;21.58;4.47;;;16.00;91.00;;;;;;5045064;28;20111;-58
2024/04/05 01:04:40;;;;;;;19.48;4.22;;;16.00;91.00;;;;;;5045239;28;20021;-58
2024/04/05 01:07:05;;;;;;;17.00;4.60;;;16.00;91.00;;;;;;5056413;28;20418;-58
2024/04/05 01:09:31;;;;;;;22.42;4.22;;;16.00;91.00;;;;;;5048201;28;20033;-58
2024/04/05 01:11:57;;;;;;;17.52;4.78;;;15.90;91.00;;;;;;5048760;28;20029;-58
2024/04/05 01:14:22;;;;;;;17.42;4.05;;;15.90;91.00;;;;;;5046372;28;20388;-58
2024/04/05 01:16:48;;;;;;;19.50;3.72;;;15.90;91.00;;;;;;5062122;28;20049;-58
2024/04/05 01:19:17;;;;;;;18.70;4.25;;;15.90;91.10;;;;;;5066172;28;20036;-58
2024/04/05 01:21:50;;;;;;;20.60;3.72;;;15.90;91.10;;;;;;5064863;28;20429;-58
2024/04/05 01:24:16;;;;;;;14.57;4.00;;;15.90;91.10;;;;;;5058925;28;20056;-58
2024/04/05 01:26:42;;;;;;;20.77;4.07;;;15.90;91.10;;;;;;5044773;28;20037;-58
2024/04/05 01:29:07;;;;;;;16.35;3.47;;;15.90;91.20;;;;;;5044339;28;20052;-58
2024/04/05 01:31:33;;;;;;;18.80;3.78;;;15.80;91.20;;;;;;5044752;28;20109;-58
2024/04/05 01:33:58;;;;;;;20.52;3.78;;;15.80;91.20;;;;;;5047266;28;20021;-57
2024/04/05 01:36:24;;;;;;;18.80;3.53;;;15.80;91.20;;;;;;5045000;28;20029;-58
2024/04/05 01:38:50;;;;;;;22.33;3.88;;;15.80;91.20;;;;;;5061176;28;20029;-58
2024/04/05 01:41:19;;;;;;;15.40;3.50;;;15.80;91.30;;;;;;5044364;28;20037;-58
2024/04/05 01:43:44;;;;;;;12.45;3.83;;;15.80;91.30;;;;;;5055297;28;20040;-57
2024/04/05 01:46:11;;;;;;;17.50;3.55;;;15.80;91.30;;;;;;5064064;28;20029;-58
2024/04/05 01:48:36;;;;;;;13.15;3.38;;;15.80;91.30;;;;;;5044427;28;20076;-58
2024/04/05 01:51:02;;;;;;;17.17;3.63;;;15.80;91.30;;;;;;5044667;28;20444;-58
2024/04/05 01:53:27;;;;;;;10.40;3.60;;;15.80;91.30;;;;;;5043970;28;20014;-58
2024/04/05 01:55:53;;;;;;;15.15;3.38;;;15.80;91.30;;;;;;5044820;28;20021;-58
2024/04/05 01:58:19;;;;;;;19.52;3.40;;;15.80;91.30;;;;;;5044387;28;20037;-58
2024/04/05 02:00:44;;;;;;;18.13;3.90;;;15.70;91.30;;;;;;5043880;28;20021;-58
2024/04/05 02:03:10;;;;;;;13.65;3.05;;;15.70;91.40;;;;;;5045594;28;20037;-58
2024/04/05 02:05:36;;;;;;;13.60;3.05;;;15.70;91.40;;;;;;5054244;28;20031;-58
2024/04/05 02:08:01;;;;;;;9.93;3.08;;;15.60;91.40;;;;;;5065467;28;20044;-58
2024/04/05 02:10:27;;;;;;;14.65;3.58;;;15.70;91.50;;;;;;5064198;28;20035;-58
2024/04/05 02:12:52;;;;;;;10.40;3.08;;;15.70;91.50;;;;;;5063989;28;20029;-58
2024/04/05 02:15:18;;;;;;;13.00;2.92;;;15.60;91.40;;;;;;5064506;28;20425;-58
2024/04/05 02:17:44;;;;;;;10.15;2.78;;;15.60;91.50;;;;;;5053098;28;20089;-58
2024/04/05 02:20:09;;;;;;;13.05;2.75;;;15.60;91.50;;;;;;5062771;28;20079;-58
2024/04/05 02:22:35;;;;;;;13.40;3.47;;;15.60;91.50;;;;;;5060977;28;20029;-58
2024/04/05 02:25:01;;;;;;;14.45;2.67;;;15.60;91.50;;;;;;5061780;28;20058;-58
2024/04/05 02:27:27;;;;;;;11.45;2.80;;;15.60;91.50;;;;;;5055738;28;20048;-58
2024/04/05 02:29:52;;;;;;;13.75;2.78;;;15.60;91.50;;;;;;5042897;28;20037;-58
2024/04/05 02:32:18;;;;;;;8.63;2.83;;;15.60;91.50;;;;;;5064398;28;20305;-58
2024/04/05 02:34:44;;;;;;;9.43;3.08;;;15.50;91.60;;;;;;5061708;28;20021;-58
2024/04/05 02:37:09;;;;;;;12.93;3.47;;;15.50;91.60;;;;;;5052089;28;20037;-58
2024/04/05 02:39:35;;;;;;;8.43;3.05;;;15.50;91.60;;;;;;5043555;28;20030;-58
2024/04/05 02:42:00;;;;;;;10.68;2.92;;;15.50;91.70;;;;;;5054441;28;20037;-58
2024/04/05 02:44:26;;;;;;;6.30;2.53;;;15.50;91.70;;;;;;5063467;28;20025;-58
2024/04/05 02:46:52;;;;;;;9.68;2.70;;;15.50;91.70;;;;;;5046905;28;20180;-58
2024/04/05 02:49:18;;;;;;;7.60;2.60;;;15.40;91.70;;;;;;5043101;28;20029;-58
2024/04/05 02:51:43;;;;;;;10.98;3.08;;;15.40;91.70;;;;;;5059436;28;20063;-58
2024/04/05 02:54:09;;;;;;;10.65;2.60;;;15.40;91.80;;;;;;5061743;28;20029;-58
2024/04/05 02:56:35;;;;;;;6.65;2.20;;;15.40;91.80;;;;;;5045986;28;20123;-58
2024/04/05 02:59:01;;;;;;;8.75;3.05;;;15.40;91.80;;;;;;5062330;28;20092;-58
2024/04/05 03:01:26;;;;;;;9.02;2.45;;;15.40;91.80;;;;;;5064235;28;20056;-58
2024/04/05 03:03:52;;;;;;;8.82;2.30;;;15.30;91.90;;;;;;5061698;28;20028;-58
2024/04/05 03:06:19;;;;;;;6.35;2.58;;;15.30;91.80;;;;;;5062844;28;20088;-58
2024/04/05 03:08:45;;;;;;;8.88;2.50;;;15.30;91.90;;;;;;5045392;28;20071;-57
2024/04/05 03:11:10;;;;;;;9.35;2.35;;;15.20;91.90;;;;;;5064197;28;20033;-58
2024/04/05 03:13:36;;;;;;;7.45;2.45;;;15.20;92.00;;;;;;5031479;28;20207;-58
2024/04/05 03:16:02;;;;;;;8.00;2.67;;;15.20;92.00;;;;;;5042843;28;20093;-58
2024/04/05 03:18:28;;;;;;;6.05;2.33;;;15.20;92.00;;;;;;5056882;28;20055;-58
2024/04/05 03:20:54;;;;;;;8.13;2.55;;;15.20;92.00;;;;;;5045449;28;20025;-58
2024/04/05 03:23:20;;;;;;;7.93;2.55;;;15.20;92.10;;;;;;5062434;28;20029;-58
2024/04/05 03:25:46;;;;;;;8.65;2.45;;;15.20;92.10;;;;;;5045952;28;20057;-57
2024/04/05 03:28:11;;;;;;;7.40;2.20;;;15.20;92.00;;;;;;5061836;28;20052;-58
2024/04/05 03:30:37;;;;;;;5.80;2.30;;;15.10;92.00;;;;;;5056152;28;20052;-58
2024/04/05 03:33:03;;;;;;;11.88;2.15;;;15.10;92.20;;;;;;5042582;28;20026;-58
2024/04/05 03:35:29;;;;;;;7.30;1.77;;;15.10;92.10;;;;;;5045274;28;20021;-58
2024/04/05 03:37:55;;;;;;;6.78;2.42;;;15.10;92.10;;;;;;5062663;28;20037;-58
2024/04/05 03:40:21;;;;;;;8.95;2.22;;;15.10;92.10;;;;;;5050238;28;20041;-58
2024/04/05 03:42:49;;;;;;;6.72;1.75;;;15.10;92.10;;;;;;5059237;28;20452;-58
2024/04/05 03:45:15;;;;;;;5.68;2.00;;;15.10;92.10;;;;;;5061587;28;20025;-58
2024/04/05 03:47:42;;;;;;;6.63;2.10;;;15.10;92.10;;;;;;5062350;28;20395;-59
2024/04/05 03:50:08;;;;;;;8.18;2.10;;;15.00;92.10;;;;;;5061121;28;20492;-58
2024/04/05 03:52:34;;;;;;;5.53;2.17;;;15.00;92.10;;;;;;5063873;28;20041;-58
2024/04/05 03:54:59;;;;;;;6.38;2.28;;;15.00;92.10;;;;;;5061507;28;20049;-58
2024/04/05 03:57:25;;;;;;;5.47;2.08;;;15.00;92.20;;;;;;5041421;28;20053;-58
2024/04/05 03:59:51;;;;;;;7.35;2.50;;;15.00;92.20;;;;;;5025930;28;20033;-58
2024/04/05 04:02:17;;;;;;;10.48;2.17;;;15.00;92.20;;;;;;5042321;28;20034;-58
2024/04/05 04:04:42;;;;;;;6.60;1.80;;;14.90;92.20;;;;;;5063232;28;20141;-58
2024/04/05 04:07:08;;;;;;;4.90;1.70;;;14.90;92.20;;;;;;5062364;28;20116;-58
2024/04/05 04:09:33;;;;;;;4.55;2.00;;;14.90;92.30;;;;;;5065259;28;20029;-57
2024/04/05 04:11:59;;;;;;;7.93;2.58;;;14.90;92.40;;;;;;5065805;28;20044;-58
2024/04/05 04:14:25;;;;;;;8.93;1.98;;;14.90;92.30;;;;;;5049664;28;20021;-58
2024/04/05 04:16:50;;;;;;;16.38;2.85;;;14.90;92.30;;;;;;5045177;28;20420;-58
2024/04/05 04:19:17;;;;;;;32.72;4.57;;;14.90;92.40;;;;;;5047422;28;20022;-58
2024/04/05 04:21:43;;;;;;;26.67;4.35;;;14.80;92.40;;;;;;5055723;28;20124;-58
2024/04/05 04:24:09;;;;;;;17.55;3.47;;;14.80;92.40;;;;;;5065472;28;20363;-58
2024/04/05 04:26:35;;;;;;;29.75;3.25;;;14.80;92.40;;;;;;5045808;28;20112;-58
2024/04/05 04:29:03;;;;;;;17.95;3.45;;;14.80;92.40;;;;;;5029292;28;20148;-57
2024/04/05 04:31:28;;;;;;;25.75;4.15;;;14.80;92.40;;;;;;5060977;28;20506;-58
2024/04/05 04:33:54;;;;;;;23.17;3.38;;;14.80;92.40;;;;;;5057801;28;20081;-58
2024/04/05 04:36:20;;;;;;;23.13;4.25;;;14.80;92.40;;;;;;5045742;28;20025;-58
2024/04/05 04:38:46;;;;;;;32.20;4.68;;;14.80;92.40;;;;;;5046476;28;20026;-58
2024/04/05 04:41:14;;;;;;;29.58;4.95;;;14.70;92.40;;;;;;5065474;28;20052;-58
2024/04/05 04:43:43;;;;;;;129.55;14.65;;;14.70;92.40;;;;;;5051827;28;20418;-58
2024/04/05 04:46:13;;;;;;;114.93;12.48;;;14.70;92.40;;;;;;5061992;28;20056;-58
2024/04/05 04:48:39;;;;;;;69.18;7.95;;;14.80;92.50;;;;;;5052909;28;20085;-57
2024/04/05 04:51:05;;;;;;;57.67;8.50;;;14.70;92.50;;;;;;5047386;28;20056;-58
2024/04/05 04:53:31;;;;;;;71.10;8.40;;;14.70;92.60;;;;;;5066969;28;20062;-58
2024/04/05 04:55:56;;;;;;;59.40;8.90;;;14.70;92.60;;;;;;5066880;28;20025;-57
2024/04/05 04:58:28;;;;;;;57.63;9.60;;;14.70;92.60;;;;;;5044889;28;20128;-58
2024/04/05 05:00:57;;;;;;;59.35;9.07;;;14.70;92.60;;;;;;5051701;28;20032;-58
2024/04/05 05:03:23;;;;;;;59.78;8.75;;;14.60;92.60;;;;;;5066729;28;20091;-58
2024/04/05 05:05:49;;;;;;;58.85;8.32;;;14.60;92.70;;;;;;5065073;28;20102;-58
2024/04/05 05:08:14;;;;;;;66.47;9.35;;;14.60;92.90;;;;;;5046612;28;20037;-58
2024/04/05 05:10:41;;;;;;;43.72;8.45;;;14.60;92.90;;;;;;5058733;28;20029;-58
2024/04/05 05:13:09;;;;;;;58.08;10.20;;;14.60;93.00;;;;;;5048611;28;20075;-57
2024/04/05 05:15:35;;;;;;;51.95;9.15;;;14.60;92.90;;;;;;5047487;28;20028;-58
2024/04/05 05:18:00;;;;;;;53.00;8.07;;;14.60;92.90;;;;;;5064869;28;20033;-58
2024/04/05 05:20:26;;;;;;;59.42;7.65;;;14.60;93.00;;;;;;5046012;28;20025;-58
2024/04/05 05:22:55;;;;;;;45.33;8.57;;;14.60;92.90;;;;;;5046340;28;20025;-58
2024/04/05 05:25:21;;;;;;;49.20;7.80;;;14.60;93.00;;;;;;5038618;28;20048;-58
2024/04/05 05:27:47;;;;;;;44.58;7.90;;;14.60;92.90;;;;;;5043881;28;20030;-58
2024/04/05 05:30:13;;;;;;;44.25;7.65;;;14.60;93.00;;;;;;5061500;28;20105;-58
2024/04/05 05:32:39;;;;;;;56.47;8.35;;;14.60;92.90;;;;;;5061192;28;20319;-58
2024/04/05 05:35:05;;;;;;;54.65;6.97;;;14.60;92.90;;;;;;5064066;28;20100;-58
2024/04/05 05:37:31;;;;;;;46.53;7.95;;;14.60;92.90;;;;;;5052491;28;20037;-58
2024/04/05 05:39:57;;;;;;;33.72;6.78;;;14.50;92.90;;;;;;5045977;28;20052;-58
2024/04/05 05:42:23;;;;;;;42.78;8.07;;;14.50;92.90;;;;;;5045605;28;20079;-58
2024/04/05 05:44:49;;;;;;;38.25;6.72;;;14.50;92.90;;;;;;5064495;28;20128;-58
2024/04/05 05:47:15;;;;;;;40.85;6.53;;;14.50;92.90;;;;;;5064705;28;20029;-58
2024/04/05 05:49:41;;;;;;;40.50;6.60;;;14.50;92.90;;;;;;5064469;28;20037;-58
2024/04/05 05:52:08;;;;;;;35.47;6.68;;;14.50;92.90;;;;;;5063264;28;20040;-58
2024/04/05 05:54:35;;;;;;;33.83;6.78;;;14.50;93.00;;;;;;5045691;28;20447;-58
2024/04/05 05:57:01;;;;;;;33.72;5.78;;;14.40;93.00;;;;;;5062814;28;20048;-57
2024/04/05 05:59:27;;;;;;;34.47;6.13;;;14.40;93.00;;;;;;5046742;28;20021;-58
2024/04/05 06:01:52;;;;;;;25.88;5.88;;;14.40;93.00;;;;;;5047014;28;20052;-58
2024/04/05 06:04:18;;;;;;;38.88;5.75;;;14.40;93.00;;;;;;5048052;28;20033;-58
2024/04/05 06:06:44;;;;;;;32.17;6.10;;;14.40;93.00;;;;;;5063374;28;20033;-58
2024/04/05 06:09:09;;;;;;;25.50;5.10;;;14.40;93.00;;;;;;5061257;28;20025;-58
2024/04/05 06:11:35;;;;;;;37.50;5.88;;;14.40;93.00;;;;;;5059989;28;20391;-57
2024/04/05 06:14:01;;;;;;;25.45;4.78;;;14.40;92.90;;;;;;5057162;28;20029;-58
2024/04/05 06:16:27;;;;;;;24.95;5.25;;;14.40;93.00;;;;;;5063315;28;20133;-57
2024/04/05 06:18:53;;;;;;;23.38;4.82;;;14.40;93.00;;;;;;5046276;28;20088;-57
2024/04/05 06:21:19;;;;;;;32.20;5.10;;;14.40;93.00;;;;;;5044075;28;20040;-57
2024/04/05 06:23:44;;;;;;;22.20;4.28;;;14.40;93.00;;;;;;5063608;28;20460;-57
2024/04/05 06:26:10;;;;;;;27.15;4.53;;;14.40;93.00;;;;;;5062532;28;20251;-57
2024/04/05 06:28:35;;;;;;;22.52;5.15;;;14.40;93.00;;;;;;5062312;28;20097;-57
2024/04/05 06:31:02;;;;;;;23.55;4.40;;;14.40;93.00;;;;;;5057417;28;20025;-57
2024/04/05 06:33:29;;;;;;;16.73;3.90;;;14.40;92.90;;;;;;5063160;28;20045;-57
2024/04/05 06:36:01;;;;;;;16.77;3.85;;;14.30;92.90;;;;;;5061824;28;20048;-57
2024/04/05 06:38:27;;;;;;;23.50;4.35;;;14.40;92.90;;;;;;5074319;28;20033;-56
2024/04/05 06:40:59;;;;;;;29.63;4.97;;;14.30;92.90;;;;;;5044627;28;20036;-57
2024/04/05 06:43:25;;;;;;;23.95;5.03;;;14.40;92.90;;;;;;5053052;28;20017;-57
2024/04/05 06:45:57;;;;;;;34.50;4.78;;;14.40;92.80;;;;;;5069571;28;20040;-57
2024/04/05 06:48:23;;;;;;;36.00;6.38;;;14.40;92.80;;;;;;5061162;28;20016;-57
2024/04/05 06:50:49;;;;;;;26.45;4.85;;;14.40;92.90;;;;;;5067435;28;20456;-57
2024/04/05 06:53:20;;;;;;;28.92;4.88;;;14.40;92.90;;;;;;5065992;28;20424;-57
2024/04/05 06:55:48;;;;;;;26.08;4.53;;;14.40;92.90;;;;;;5063416;28;20103;-57
2024/04/05 06:58:15;;;;;;;31.88;5.20;;;14.40;93.00;;;;;;5056644;28;20025;-57
2024/04/05 07:00:41;;;;;;;27.92;4.72;;;14.40;92.90;;;;;;5057157;28;20125;-57
2024/04/05 07:03:07;;;;;;;113.03;11.05;;;14.50;93.00;;;;;;5070770;28;20526;-57
2024/04/05 07:05:33;;;;;;;101.65;12.10;;;14.40;92.90;;;;;;5043665;28;20105;-57
2024/04/05 07:07:59;;;;;;;48.55;8.73;;;14.50;92.90;;;;;;5044622;28;20052;-57
2024/04/05 07:10:24;;;;;;;59.40;7.63;;;14.50;92.80;;;;;;5057158;28;20028;-57
2024/04/05 07:12:54;;;;;;;55.90;8.85;;;14.50;92.80;;;;;;5049839;28;20028;-57
2024/04/05 07:15:20;;;;;;;60.67;7.45;;;14.50;92.80;;;;;;5049646;28;20024;-57
2024/04/05 07:17:49;;;;;;;43.33;6.90;;;14.50;92.80;;;;;;5048304;28;20041;-58
2024/04/05 07:20:15;;;;;;;57.80;8.52;;;14.50;92.80;;;;;;5076776;28;20017;-57
2024/04/05 07:22:42;;;;;;;48.58;5.97;;;14.50;92.80;;;;;;5042488;28;20514;-57
2024/04/05 07:25:08;;;;;;;56.13;7.95;;;14.50;92.80;;;;;;5060597;28;20218;-57
2024/04/05 07:27:34;;;;;;;69.22;9.10;;;14.60;92.80;;;;;;5064556;28;20128;-57
2024/04/05 07:30:01;;;;;;;148.50;15.70;;;14.50;92.70;;;;;;5062848;28;20036;-58
2024/04/05 07:32:27;;;;;;;94.55;11.25;;;14.50;92.90;;;;;;5065427;28;20058;-57
2024/04/05 07:34:53;;;;;;;89.93;10.70;;;14.60;93.00;;;;;;5042215;28;20097;-57
2024/04/05 07:37:20;;;;;;;105.47;14.60;;;14.60;93.00;;;;;;5058035;28;20037;-57
2024/04/05 07:39:46;;;;;;;118.20;14.32;;;14.60;92.90;;;;;;5046074;28;20029;-57
2024/04/05 07:42:12;;;;;;;136.10;14.70;;;14.60;92.90;;;;;;5049126;28;20037;-57
2024/04/05 07:44:38;;;;;;;62.58;9.45;;;14.60;92.90;;;;;;5065048;28;20056;-58
2024/04/05 07:47:03;;;;;;;116.57;13.52;;;14.60;92.80;;;;;;5077847;28;20052;-58
2024/04/05 07:49:29;;;;;;;154.27;17.70;;;14.60;92.90;;;;;;5077122;28;20102;-57
2024/04/05 07:51:54;;;;;;;205.15;21.98;;;14.70;92.90;;;;;;5069454;28;20025;-58
2024/04/05 07:54:20;;;;;;;178.82;19.98;;;14.70;92.90;;;;;;5064524;28;20056;-58
2024/04/05 07:56:47;;;;;;;252.93;24.45;;;14.70;92.90;;;;;;5074362;28;20107;-58
2024/04/05 07:59:13;;;;;;;195.65;20.48;;;14.70;92.80;;;;;;5068966;28;20032;-56
2024/04/05 08:01:38;;;;;;;199.05;19.65;;;14.70;92.80;;;;;;5061200;28;20033;-57
2024/04/05 08:04:04;;;;;;;238.95;24.45;;;14.70;92.80;;;;;;5069487;28;20037;-57
2024/04/05 08:06:29;;;;;;;175.07;21.35;;;14.70;92.80;;;;;;5066294;28;20037;-57
2024/04/05 08:08:55;;;;;;;206.10;19.10;;;14.70;92.80;;;;;;5029924;28;20025;-57
2024/04/05 08:11:22;;;;;;;481.70;45.80;;;14.80;92.80;;;;;;5066631;28;20055;-57
2024/04/05 08:13:51;;;;;;;212.73;21.17;;;14.80;92.80;;;;;;5039135;28;20546;-57
2024/04/05 08:16:18;;;;;;;256.92;24.92;;;14.80;92.70;;;;;;5066416;28;20487;-57
2024/04/05 08:18:43;;;;;;;188.93;17.75;;;14.90;92.70;;;;;;5075316;28;20021;-57
2024/04/05 08:21:09;;;;;;;188.95;20.17;;;14.90;92.80;;;;;;5062031;28;20033;-57
2024/04/05 08:23:35;;;;;;;350.83;36.22;;;14.90;92.80;;;;;;5062728;28;20215;-57
2024/04/05 08:26:01;;;;;;;322.67;33.75;;;14.90;92.70;;;;;;5078383;28;20028;-57
2024/04/05 08:28:27;;;;;;;191.18;20.42;;;14.90;92.70;;;;;;5063737;28;20029;-58
2024/04/05 08:30:52;;;;;;;217.82;22.73;;;14.90;92.70;;;;;;5048169;28;20048;-57
2024/04/05 08:33:18;;;;;;;215.68;22.63;;;15.00;92.60;;;;;;5069945;28;20036;-57
2024/04/05 08:35:52;;;;;;;186.80;20.55;;;15.00;92.50;;;;;;5072944;28;20024;-57
2024/04/05 08:38:17;;;;;;;220.40;25.33;;;14.70;92.40;;;;;;5050078;28;20028;-57
2024/04/05 08:40:43;;;;;;;231.07;24.58;;;15.00;92.50;;;;;;5055101;28;20032;-58
2024/04/05 08:43:09;;;;;;;345.75;34.53;;;15.10;92.60;;;;;;5053106;28;20037;-57
2024/04/05 08:45:35;;;;;;;449.65;47.55;;;15.10;92.50;;;;;;5065510;28;20021;-57
2024/04/05 08:48:04;;;;;;;310.55;35.53;;;15.00;92.50;;;;;;5061550;28;20033;-57
2024/04/05 08:50:30;;;;;;;321.00;34.33;;;15.10;92.50;;;;;;5069346;28;20126;-57
2024/04/05 08:52:56;;;;;;;261.33;26.92;;;15.10;92.50;;;;;;5060661;28;20089;-57
2024/04/05 08:55:22;;;;;;;245.68;26.38;;;15.10;92.50;;;;;;5069120;28;20106;-57
2024/04/05 08:57:48;;;;;;;234.30;25.58;;;15.20;92.40;;;;;;5066920;28;20055;-57
2024/04/05 09:00:17;;;;;;;232.35;24.42;;;15.20;92.30;;;;;;5063974;28;20017;-58
2024/04/05 09:02:42;;;;;;;212.07;25.75;;;15.20;92.30;;;;;;5055192;28;20037;-57
2024/04/05 09:05:09;;;;;;;200.52;23.20;;;15.20;92.50;;;;;;5027880;28;20051;-57
2024/04/05 09:07:35;;;;;;;227.48;24.00;;;15.20;92.20;;;;;;5065362;28;20040;-57
2024/04/05 09:10:19;;;;;;;310.75;30.08;;;15.20;92.10;;;;;;5054280;28;20040;-57
2024/04/05 09:12:52;;;;;;;311.75;34.72;;;15.30;92.00;;;;;;5060462;28;20028;-57
2024/04/05 09:15:18;;;;;;;196.48;20.05;;;15.30;91.90;;;;;;5040472;28;20201;-57
2024/04/05 09:17:49;;;;;;;169.48;21.08;;;15.30;91.60;;;;;;5067995;28;20108;-57
2024/04/05 09:20:30;;;;;;;249.70;23.35;;;15.40;91.50;;;;;;5056001;28;20013;-57
2024/04/05 09:23:02;;;;;;;153.88;19.38;;;15.40;91.40;;;;;;5037773;28;20030;-57
2024/04/05 09:25:28;;;;;;;157.15;19.75;;;15.40;91.40;;;;;;5052343;28;20033;-57
2024/04/05 09:28:04;;;;;;;124.43;15.05;;;15.50;91.20;;;;;;5071335;28;20436;-57
2024/04/05 09:30:30;;;;;;;119.53;15.35;;;15.50;91.10;;;;;;5067143;28;20025;-57
2024/04/05 09:32:57;;;;;;;125.90;14.75;;;15.50;91.00;;;;;;5061925;28;20037;-57
2024/04/05 09:35:25;;;;;;;144.82;17.25;;;15.50;90.90;;;;;;5073611;28;20035;-57
2024/04/05 09:37:50;;;;;;;177.45;19.60;;;15.60;90.90;;;;;;5064141;28;20037;-57
2024/04/05 09:40:16;;;;;;;175.30;21.92;;;15.60;90.90;;;;;;5056588;28;20081;-57
2024/04/05 09:42:42;;;;;;;171.52;21.55;;;15.60;90.90;;;;;;5044986;28;20039;-57
2024/04/05 09:45:07;;;;;;;196.18;23.10;;;15.60;91.00;;;;;;5043396;28;20040;-57
2024/04/05 09:47:33;;;;;;;175.13;19.80;;;15.60;91.10;;;;;;5054241;28;20039;-57
2024/04/05 09:49:59;;;;;;;130.63;15.70;;;15.60;91.00;;;;;;5071993;28;20099;-57
2024/04/05 09:52:28;;;;;;;120.43;14.70;;;15.70;91.00;;;;;;5072453;28;20097;-58
2024/04/05 09:54:55;;;;;;;113.63;12.85;;;15.70;90.70;;;;;;5052289;28;20021;-57
2024/04/05 09:57:21;;;;;;;103.30;11.63;;;15.70;90.40;;;;;;5049086;28;20062;-57
2024/04/05 09:59:48;;;;;;;89.40;11.25;;;15.70;90.20;;;;;;5060958;28;20032;-57
2024/04/05 10:02:17;;;;;;;97.47;10.77;;;15.80;90.10;;;;;;5057486;28;20451;-57
2024/04/05 10:04:44;;;;;;;79.50;10.70;;;15.80;90.10;;;;;;5042420;28;20048;-57
2024/04/05 10:07:11;;;;;;;97.15;10.82;;;15.90;89.80;;;;;;5060135;28;20048;-57
2024/04/05 10:09:37;;;;;;;115.88;14.10;;;15.90;89.40;;;;;;5055536;28;20052;-57
2024/04/05 10:12:21;;;;;;;109.43;12.75;;;15.90;88.90;;;;;;5042113;28;23123;-58
2024/04/05 10:14:53;;;;;;;116.97;14.43;;;16.00;88.90;;;;;;5051693;28;20028;-57
2024/04/05 10:17:27;;;;;;;104.00;12.27;;;16.00;88.80;;;;;;5051749;28;20039;-57
2024/04/05 10:20:07;;;;;;;84.20;10.80;;;16.00;87.90;;;;;;5047382;28;20051;-57
2024/04/05 10:22:33;;;;;;;96.63;11.07;;;16.10;87.40;;;;;;5050235;28;20119;-57
2024/04/05 10:24:59;;;;;;;130.85;12.45;;;16.10;87.50;;;;;;5058504;28;20037;-59
2024/04/05 10:27:26;;;;;;;100.70;10.23;;;16.20;86.90;;;;;;5051734;28;20056;-58
2024/04/05 10:30:06;;;;;;;59.55;7.85;;;16.20;86.90;;;;;;5059572;28;20037;-57
2024/04/05 10:32:33;;;;;;;61.45;8.57;;;16.30;86.80;;;;;;5053274;28;20039;-58
2024/04/05 10:35:08;;;;;;;75.82;8.68;;;16.30;86.20;;;;;;5057746;28;20514;-57
2024/04/05 10:37:38;;;;;;;79.70;9.43;;;16.30;86.20;;;;;;5061261;28;20029;-57
2024/04/05 10:40:10;;;;;;;78.03;9.38;;;16.40;86.40;;;;;;5070791;28;20060;-57
2024/04/05 10:42:38;;;;;;;68.80;8.10;;;16.40;86.60;;;;;;5059861;28;20044;-57
2024/04/05 10:45:05;;;;;;;81.93;8.38;;;16.50;86.20;;;;;;5058888;28;20042;-57
2024/04/05 10:47:33;;;;;;;59.50;6.82;;;16.50;85.90;;;;;;5057351;28;20516;-57
2024/04/05 10:50:06;;;;;;;49.50;6.75;;;16.60;85.50;;;;;;5046283;28;20040;-57
2024/04/05 10:52:36;;;;;;;59.97;6.07;;;16.70;84.10;;;;;;5055852;28;20451;-57
2024/04/05 10:55:09;;;;;;;47.03;5.85;;;16.80;84.10;;;;;;5039402;28;20022;-57
2024/04/05 10:57:35;;;;;;;43.70;5.93;;;16.80;83.60;;;;;;5041174;28;20112;-57
2024/04/05 11:00:03;;;;;;;41.80;6.10;;;16.90;83.20;;;;;;5054097;28;20045;-57
2024/04/05 11:02:29;;;;;;;68.78;8.13;;;17.00;82.60;;;;;;5052610;28;20029;-57
2024/04/05 11:05:06;;;;;;;50.22;5.53;;;17.00;82.30;;;;;;5052839;28;20445;-57
2024/04/05 11:07:34;;;;;;;55.22;5.07;;;17.10;81.80;;;;;;5064478;28;20037;-57
2024/04/05 11:10:00;;;;;;;38.72;5.18;;;17.10;81.50;;;;;;5064699;28;20029;-57
2024/04/05 11:12:26;;;;;;;48.85;5.30;;;17.10;80.90;;;;;;5042070;28;20022;-58
2024/04/05 11:15:02;;;;;;;57.10;5.07;;;17.20;80.90;;;;;;5045238;28;20032;-57
2024/04/05 11:17:28;;;;;;;79.30;8.20;;;17.30;80.70;;;;;;5053777;28;20044;-57
2024/04/05 11:19:54;;;;;;;75.95;6.85;;;17.40;80.40;;;;;;5057980;28;20048;-58
2024/04/05 11:22:19;;;;;;;52.50;6.20;;;17.40;80.20;;;;;;5056931;28;20025;-57
2024/04/05 11:24:48;;;;;;;57.55;5.55;;;17.50;79.80;;;;;;5045727;28;20047;-58
2024/04/05 11:27:20;;;;;;;54.65;5.68;;;17.50;79.40;;;;;;5057192;28;20052;-58
2024/04/05 11:29:46;;;;;;;50.22;5.40;;;17.60;79.30;;;;;;5067815;28;20032;-57
2024/04/05 11:32:12;;;;;;;52.88;6.15;;;17.60;79.50;;;;;;5060096;28;20048;-57
2024/04/05 11:34:38;;;;;;;57.72;6.20;;;17.70;78.70;;;;;;5059943;28;20040;-58
2024/04/05 11:37:03;;;;;;;35.05;4.88;;;17.80;78.20;;;;;;5061807;28;20047;-57
2024/04/05 11:39:29;;;;;;;49.40;5.68;;;17.80;77.70;;;;;;5060979;28;20518;-58
2024/04/05 11:41:54;;;;;;;28.45;4.28;;;17.90;77.40;;;;;;5056272;28;20105;-57
2024/04/05 11:44:20;;;;;;;47.63;6.03;;;18.00;76.60;;;;;;5042002;28;20060;-57
2024/04/05 11:46:47;;;;;;;30.90;5.50;;;18.00;76.20;;;;;;5055774;28;20777;-56
2024/04/05 11:49:13;;;;;;;40.63;4.25;;;18.10;76.00;;;;;;5047182;28;20087;-58
2024/04/05 11:51:39;;;;;;;50.53;5.60;;;18.20;76.10;;;;;;5070835;28;20024;-57
2024/04/05 11:54:04;;;;;;;55.15;4.88;;;18.20;76.00;;;;;;5066428;28;20361;-57
2024/04/05 11:56:30;;;;;;;51.08;6.15;;;18.30;76.10;;;;;;5047261;28;20041;-58
2024/04/05 11:58:56;;;;;;;49.28;6.22;;;18.40;75.90;;;;;;5038179;28;20032;-58
2024/04/05 12:01:21;;;;;;;40.78;4.95;;;18.40;75.40;;;;;;5056745;28;20052;-57
2024/04/05 12:03:47;;;;;;;52.90;4.93;;;18.50;74.90;;;;;;5053954;28;20393;-57
2024/04/05 12:06:14;;;;;;;47.88;4.75;;;18.60;74.70;;;;;;5049281;28;20125;-58
2024/04/05 12:08:40;;;;;;;37.92;4.28;;;18.60;74.40;;;;;;5068965;28;20108;-58
2024/04/05 12:11:06;;;;;;;52.00;5.30;;;18.80;73.90;;;;;;5055015;28;20056;-58
2024/04/05 12:13:31;;;;;;;34.13;4.05;;;18.80;73.40;;;;;;5035124;28;20088;-58
2024/04/05 12:15:58;;;;;;;43.88;4.40;;;18.90;72.90;;;;;;5057756;28;20013;-57
2024/04/05 12:18:24;;;;;;;39.88;3.88;;;19.00;72.60;;;;;;5054956;28;20029;-58
2024/04/05 12:20:50;;;;;;;34.50;4.57;;;19.10;72.20;;;;;;5045159;28;20029;-58
2024/04/05 12:23:18;;;;;;;39.72;4.22;;;19.20;71.80;;;;;;5057715;28;20047;-58
2024/04/05 12:25:53;;;;;;;23.83;3.33;;;19.20;71.30;;;;;;5043196;28;20033;-58
2024/04/05 12:28:19;;;;;;;21.48;3.03;;;19.30;71.30;;;;;;5062087;28;20048;-58
2024/04/05 12:30:44;;;;;;;54.85;5.65;;;19.40;71.20;;;;;;5065758;28;20021;-58